sensor_id;sensor_type;location;lat;lon;timestamp;P1;durP1;ratioP1;P2;durP2;ratioP2
8183;SDS011;4133;48.752;9.088;2022-07-23T00:00:03;3.28;;;2.95;;
8183;SDS011;4133;48.752;9.088;2022-07-23T00:02:31;2.95;;;2.67;;
8183;SDS011;4133;48.752;9.088;2022-07-23T00:04:57;3.80;;;3.00;;
8183;SDS011;4133;48.752;9.088;2022-07-23T00:07:23;3.70;;;3.20;;
8183;SDS011;4133;48.752;9.088;2022-07-23T00:09:49;3.45;;;3.15;;
8183;SDS011;4133;48.752;9.088;2022-07-23T00:12:15;2.97;;;2.78;;
8183;SDS011;4133;48.752;9.088;2022-07-23T00:14:41;3.42;;;3.13;;
8183;SDS011;4133;48.752;9.088;2022-07-23T00:17:07;4.70;;;3.53;;
8183;SDS011;4133;48.752;9.088;2022-07-23T00:19:33;3.25;;;2.95;;
8183;SDS011;4133;48.752;9.088;2022-07-23T00:21:59;4.95;;;2.90;;
8183;SDS011;4133;48.752;9.088;2022-07-23T00:24:25;3.25;;;2.95;;
8183;SDS011;4133;48.752;9.088;2022-07-23T00:26:51;2.95;;;2.75;;
8183;SDS011;4133;48.752;9.088;2022-07-23T00:29:17;3.65;;;3.33;;
8183;SDS011;4133;48.752;9.088;2022-07-23T00:31:43;4.55;;;2.78;;
8183;SDS011;4133;48.752;9.088;2022-07-23T00:34:09;3.55;;;3.25;;
8183;SDS011;4133;48.752;9.088;2022-07-23T00:36:35;2.78;;;2.58;;
8183;SDS011;4133;48.752;9.088;2022-07-23T00:39:01;3.00;;;2.80;;
8183;SDS011;4133;48.752;9.088;2022-07-23T00:41:27;3.33;;;3.03;;
8183;SDS011;4133;48.752;9.088;2022-07-23T00:43:53;3.20;;;2.90;;
8183;SDS011;4133;48.752;9.088;2022-07-23T00:46:20;6.45;;;3.40;;
8183;SDS011;4133;48.752;9.088;2022-07-23T00:48:46;4.50;;;2.78;;
8183;SDS011;4133;48.752;9.088;2022-07-23T00:51:12;3.40;;;3.10;;
8183;SDS011;4133;48.752;9.088;2022-07-23T00:53:38;3.55;;;3.10;;
8183;SDS011;4133;48.752;9.088;2022-07-23T00:56:04;3.92;;;3.45;;
8183;SDS011;4133;48.752;9.088;2022-07-23T00:58:30;3.08;;;2.88;;
8183;SDS011;4133;48.752;9.088;2022-07-23T01:00:57;7.50;;;3.03;;
8183;SDS011;4133;48.752;9.088;2022-07-23T01:03:23;3.30;;;3.00;;
8183;SDS011;4133;48.752;9.088;2022-07-23T01:05:49;5.82;;;3.13;;
8183;SDS011;4133;48.752;9.088;2022-07-23T01:08:15;4.30;;;3.22;;
8183;SDS011;4133;48.752;9.088;2022-07-23T01:10:43;4.72;;;3.28;;
8183;SDS011;4133;48.752;9.088;2022-07-23T01:13:09;3.30;;;3.00;;
8183;SDS011;4133;48.752;9.088;2022-07-23T01:15:35;7.07;;;3.33;;
8183;SDS011;4133;48.752;9.088;2022-07-23T01:18:03;3.40;;;3.08;;
8183;SDS011;4133;48.752;9.088;2022-07-23T01:20:29;4.13;;;3.03;;
8183;SDS011;4133;48.752;9.088;2022-07-23T01:22:56;3.33;;;3.03;;
8183;SDS011;4133;48.752;9.088;2022-07-23T01:25:22;3.30;;;3.03;;
8183;SDS011;4133;48.752;9.088;2022-07-23T01:27:48;3.70;;;3.30;;
8183;SDS011;4133;48.752;9.088;2022-07-23T01:30:14;4.55;;;3.08;;
8183;SDS011;4133;48.752;9.088;2022-07-23T01:32:41;3.08;;;2.83;;
8183;SDS011;4133;48.752;9.088;2022-07-23T01:35:07;3.40;;;3.10;;
8183;SDS011;4133;48.752;9.088;2022-07-23T01:37:33;3.10;;;2.80;;
8183;SDS011;4133;48.752;9.088;2022-07-23T01:39:59;3.50;;;3.20;;
8183;SDS011;4133;48.752;9.088;2022-07-23T01:42:25;3.47;;;3.17;;
8183;SDS011;4133;48.752;9.088;2022-07-23T01:44:51;3.28;;;2.97;;
8183;SDS011;4133;48.752;9.088;2022-07-23T01:47:17;3.00;;;2.80;;
8183;SDS011;4133;48.752;9.088;2022-07-23T01:49:43;3.70;;;3.22;;
8183;SDS011;4133;48.752;9.088;2022-07-23T01:52:09;3.33;;;3.03;;
8183;SDS011;4133;48.752;9.088;2022-07-23T01:54:36;4.05;;;3.10;;
8183;SDS011;4133;48.752;9.088;2022-07-23T01:57:02;4.00;;;3.00;;
8183;SDS011;4133;48.752;9.088;2022-07-23T01:59:28;3.75;;;3.00;;
8183;SDS011;4133;48.752;9.088;2022-07-23T02:02:11;3.22;;;2.95;;
8183;SDS011;4133;48.752;9.088;2022-07-23T02:04:37;4.00;;;3.10;;
8183;SDS011;4133;48.752;9.088;2022-07-23T02:07:03;4.28;;;3.15;;
8183;SDS011;4133;48.752;9.088;2022-07-23T02:09:29;3.50;;;3.20;;
8183;SDS011;4133;48.752;9.088;2022-07-23T02:11:56;4.38;;;3.28;;
8183;SDS011;4133;48.752;9.088;2022-07-23T02:14:22;4.82;;;3.17;;
8183;SDS011;4133;48.752;9.088;2022-07-23T02:16:48;3.35;;;3.05;;
8183;SDS011;4133;48.752;9.088;2022-07-23T02:19:14;3.50;;;3.20;;
8183;SDS011;4133;48.752;9.088;2022-07-23T02:21:40;3.30;;;3.00;;
8183;SDS011;4133;48.752;9.088;2022-07-23T02:24:06;4.97;;;3.63;;
8183;SDS011;4133;48.752;9.088;2022-07-23T02:26:32;3.88;;;3.47;;
8183;SDS011;4133;48.752;9.088;2022-07-23T02:28:59;4.32;;;3.15;;
8183;SDS011;4133;48.752;9.088;2022-07-23T02:31:25;3.83;;;3.47;;
8183;SDS011;4133;48.752;9.088;2022-07-23T02:33:51;3.58;;;3.22;;
8183;SDS011;4133;48.752;9.088;2022-07-23T02:36:17;3.42;;;3.13;;
8183;SDS011;4133;48.752;9.088;2022-07-23T02:38:43;4.43;;;3.35;;
8183;SDS011;4133;48.752;9.088;2022-07-23T02:41:12;3.40;;;3.10;;
8183;SDS011;4133;48.752;9.088;2022-07-23T02:43:38;3.42;;;3.13;;
8183;SDS011;4133;48.752;9.088;2022-07-23T02:46:04;5.88;;;3.00;;
8183;SDS011;4133;48.752;9.088;2022-07-23T02:48:30;3.30;;;3.00;;
8183;SDS011;4133;48.752;9.088;2022-07-23T02:50:56;3.72;;;3.42;;
8183;SDS011;4133;48.752;9.088;2022-07-23T02:53:22;3.75;;;3.08;;
8183;SDS011;4133;48.752;9.088;2022-07-23T02:55:48;3.50;;;3.20;;
8183;SDS011;4133;48.752;9.088;2022-07-23T02:58:14;6.15;;;3.40;;
8183;SDS011;4133;48.752;9.088;2022-07-23T03:00:40;3.60;;;3.30;;
8183;SDS011;4133;48.752;9.088;2022-07-23T03:03:09;4.65;;;3.50;;
8183;SDS011;4133;48.752;9.088;2022-07-23T03:05:35;3.88;;;3.53;;
8183;SDS011;4133;48.752;9.088;2022-07-23T03:08:01;3.50;;;2.90;;
8183;SDS011;4133;48.752;9.088;2022-07-23T03:10:27;3.70;;;3.40;;
8183;SDS011;4133;48.752;9.088;2022-07-23T03:12:53;4.07;;;3.67;;
8183;SDS011;4133;48.752;9.088;2022-07-23T03:15:21;3.63;;;3.03;;
8183;SDS011;4133;48.752;9.088;2022-07-23T03:17:47;4.30;;;3.00;;
8183;SDS011;4133;48.752;9.088;2022-07-23T03:20:13;3.30;;;3.00;;
8183;SDS011;4133;48.752;9.088;2022-07-23T03:22:39;3.80;;;3.35;;
8183;SDS011;4133;48.752;9.088;2022-07-23T03:25:05;3.40;;;3.10;;
8183;SDS011;4133;48.752;9.088;2022-07-23T03:27:31;3.80;;;3.50;;
8183;SDS011;4133;48.752;9.088;2022-07-23T03:29:58;3.88;;;3.53;;
8183;SDS011;4133;48.752;9.088;2022-07-23T03:32:25;3.92;;;3.38;;
8183;SDS011;4133;48.752;9.088;2022-07-23T03:34:51;3.47;;;3.17;;
8183;SDS011;4133;48.752;9.088;2022-07-23T03:37:17;3.55;;;3.25;;
8183;SDS011;4133;48.752;9.088;2022-07-23T03:39:43;3.50;;;3.20;;
8183;SDS011;4133;48.752;9.088;2022-07-23T03:42:10;4.55;;;3.50;;
8183;SDS011;4133;48.752;9.088;2022-07-23T03:44:36;3.40;;;3.20;;
8183;SDS011;4133;48.752;9.088;2022-07-23T03:47:03;3.65;;;3.30;;
8183;SDS011;4133;48.752;9.088;2022-07-23T03:49:29;3.40;;;3.10;;
8183;SDS011;4133;48.752;9.088;2022-07-23T03:51:55;4.07;;;3.45;;
8183;SDS011;4133;48.752;9.088;2022-07-23T03:54:21;4.20;;;3.65;;
8183;SDS011;4133;48.752;9.088;2022-07-23T03:56:47;5.63;;;3.70;;
8183;SDS011;4133;48.752;9.088;2022-07-23T03:59:13;5.18;;;3.90;;
8183;SDS011;4133;48.752;9.088;2022-07-23T04:01:39;4.47;;;4.00;;
8183;SDS011;4133;48.752;9.088;2022-07-23T04:04:05;3.45;;;3.20;;
8183;SDS011;4133;48.752;9.088;2022-07-23T04:06:33;3.90;;;3.60;;
8183;SDS011;4133;48.752;9.088;2022-07-23T04:08:59;3.65;;;3.35;;
8183;SDS011;4133;48.752;9.088;2022-07-23T04:11:25;3.65;;;3.35;;
8183;SDS011;4133;48.752;9.088;2022-07-23T04:13:53;3.80;;;3.50;;
8183;SDS011;4133;48.752;9.088;2022-07-23T04:16:19;3.58;;;3.28;;
8183;SDS011;4133;48.752;9.088;2022-07-23T04:18:45;3.75;;;3.45;;
8183;SDS011;4133;48.752;9.088;2022-07-23T04:21:11;3.70;;;3.40;;
8183;SDS011;4133;48.752;9.088;2022-07-23T04:23:37;5.65;;;3.65;;
8183;SDS011;4133;48.752;9.088;2022-07-23T04:26:03;4.07;;;3.55;;
8183;SDS011;4133;48.752;9.088;2022-07-23T04:28:29;3.80;;;3.50;;
8183;SDS011;4133;48.752;9.088;2022-07-23T04:30:56;3.80;;;3.50;;
8183;SDS011;4133;48.752;9.088;2022-07-23T04:33:22;4.22;;;3.50;;
8183;SDS011;4133;48.752;9.088;2022-07-23T04:35:48;4.57;;;3.80;;
8183;SDS011;4133;48.752;9.088;2022-07-23T04:38:14;3.88;;;3.50;;
8183;SDS011;4133;48.752;9.088;2022-07-23T04:40:40;4.43;;;4.03;;
8183;SDS011;4133;48.752;9.088;2022-07-23T04:43:06;4.28;;;3.88;;
8183;SDS011;4133;48.752;9.088;2022-07-23T04:45:32;4.20;;;3.70;;
8183;SDS011;4133;48.752;9.088;2022-07-23T04:47:58;4.03;;;3.67;;
8183;SDS011;4133;48.752;9.088;2022-07-23T04:50:24;3.72;;;3.42;;
8183;SDS011;4133;48.752;9.088;2022-07-23T04:52:50;4.10;;;3.70;;
8183;SDS011;4133;48.752;9.088;2022-07-23T04:55:16;6.28;;;3.90;;
8183;SDS011;4133;48.752;9.088;2022-07-23T04:57:42;3.65;;;3.38;;
8183;SDS011;4133;48.752;9.088;2022-07-23T05:00:09;4.85;;;3.97;;
8183;SDS011;4133;48.752;9.088;2022-07-23T05:02:35;3.97;;;3.60;;
8183;SDS011;4133;48.752;9.088;2022-07-23T05:05:01;4.45;;;3.80;;
8183;SDS011;4133;48.752;9.088;2022-07-23T05:07:27;4.93;;;3.42;;
8183;SDS011;4133;48.752;9.088;2022-07-23T05:09:53;4.90;;;3.83;;
8183;SDS011;4133;48.752;9.088;2022-07-23T05:12:19;4.47;;;3.67;;
8183;SDS011;4133;48.752;9.088;2022-07-23T05:14:46;4.65;;;3.92;;
8183;SDS011;4133;48.752;9.088;2022-07-23T05:17:12;4.13;;;3.72;;
8183;SDS011;4133;48.752;9.088;2022-07-23T05:19:38;4.28;;;3.88;;
8183;SDS011;4133;48.752;9.088;2022-07-23T05:22:04;4.00;;;3.70;;
8183;SDS011;4133;48.752;9.088;2022-07-23T05:24:30;4.05;;;3.75;;
8183;SDS011;4133;48.752;9.088;2022-07-23T05:26:56;5.43;;;3.58;;
8183;SDS011;4133;48.752;9.088;2022-07-23T05:29:22;5.00;;;3.47;;
8183;SDS011;4133;48.752;9.088;2022-07-23T05:31:48;3.95;;;3.60;;
8183;SDS011;4133;48.752;9.088;2022-07-23T05:34:14;4.40;;;3.70;;
8183;SDS011;4133;48.752;9.088;2022-07-23T05:36:40;4.97;;;3.80;;
8183;SDS011;4133;48.752;9.088;2022-07-23T05:39:06;5.40;;;3.88;;
8183;SDS011;4133;48.752;9.088;2022-07-23T05:41:32;4.90;;;3.88;;
8183;SDS011;4133;48.752;9.088;2022-07-23T05:43:57;3.70;;;3.40;;
8183;SDS011;4133;48.752;9.088;2022-07-23T05:46:24;4.00;;;3.53;;
8183;SDS011;4133;48.752;9.088;2022-07-23T05:48:50;5.32;;;3.63;;
8183;SDS011;4133;48.752;9.088;2022-07-23T05:51:23;4.35;;;3.95;;
8183;SDS011;4133;48.752;9.088;2022-07-23T05:53:49;3.65;;;3.35;;
8183;SDS011;4133;48.752;9.088;2022-07-23T05:56:15;5.03;;;3.90;;
8183;SDS011;4133;48.752;9.088;2022-07-23T05:58:41;3.95;;;3.65;;
8183;SDS011;4133;48.752;9.088;2022-07-23T06:01:07;5.28;;;4.00;;
8183;SDS011;4133;48.752;9.088;2022-07-23T06:03:34;4.35;;;3.95;;
8183;SDS011;4133;48.752;9.088;2022-07-23T06:06:00;4.03;;;3.70;;
8183;SDS011;4133;48.752;9.088;2022-07-23T06:08:26;3.83;;;3.53;;
8183;SDS011;4133;48.752;9.088;2022-07-23T06:10:52;4.47;;;3.80;;
8183;SDS011;4133;48.752;9.088;2022-07-23T06:13:20;5.38;;;3.70;;
8183;SDS011;4133;48.752;9.088;2022-07-23T06:15:49;3.88;;;3.53;;
8183;SDS011;4133;48.752;9.088;2022-07-23T06:18:24;4.32;;;3.90;;
8183;SDS011;4133;48.752;9.088;2022-07-23T06:20:50;4.03;;;3.60;;
8183;SDS011;4133;48.752;9.088;2022-07-23T06:23:17;5.63;;;3.78;;
8183;SDS011;4133;48.752;9.088;2022-07-23T06:25:43;4.00;;;3.70;;
8183;SDS011;4133;48.752;9.088;2022-07-23T06:28:09;5.05;;;3.83;;
8183;SDS011;4133;48.752;9.088;2022-07-23T06:30:35;4.53;;;3.75;;
8183;SDS011;4133;48.752;9.088;2022-07-23T06:33:01;4.00;;;3.70;;
8183;SDS011;4133;48.752;9.088;2022-07-23T06:35:36;4.18;;;3.60;;
8183;SDS011;4133;48.752;9.088;2022-07-23T06:38:02;7.38;;;4.78;;
8183;SDS011;4133;48.752;9.088;2022-07-23T06:41:02;12.88;;;8.40;;
8183;SDS011;4133;48.752;9.088;2022-07-23T06:46:12;4.53;;;4.03;;
8183;SDS011;4133;48.752;9.088;2022-07-23T06:48:38;5.55;;;4.80;;
8183;SDS011;4133;48.752;9.088;2022-07-23T06:51:11;5.82;;;4.55;;
8183;SDS011;4133;48.752;9.088;2022-07-23T06:53:37;9.13;;;5.90;;
8183;SDS011;4133;48.752;9.088;2022-07-23T06:56:03;6.53;;;5.00;;
8183;SDS011;4133;48.752;9.088;2022-07-23T06:58:29;8.75;;;5.07;;
8183;SDS011;4133;48.752;9.088;2022-07-23T07:00:55;5.95;;;4.63;;
8183;SDS011;4133;48.752;9.088;2022-07-23T07:03:22;7.82;;;5.20;;
8183;SDS011;4133;48.752;9.088;2022-07-23T07:06:12;6.45;;;4.72;;
8183;SDS011;4133;48.752;9.088;2022-07-23T07:08:39;6.95;;;4.32;;
8183;SDS011;4133;48.752;9.088;2022-07-23T07:11:14;5.43;;;4.32;;
8183;SDS011;4133;48.752;9.088;2022-07-23T07:13:55;6.45;;;5.50;;
8183;SDS011;4133;48.752;9.088;2022-07-23T07:16:21;4.68;;;4.10;;
8183;SDS011;4133;48.752;9.088;2022-07-23T07:18:47;9.57;;;4.57;;
8183;SDS011;4133;48.752;9.088;2022-07-23T07:21:13;10.00;;;4.80;;
8183;SDS011;4133;48.752;9.088;2022-07-23T07:23:39;8.57;;;5.28;;
8183;SDS011;4133;48.752;9.088;2022-07-23T07:26:05;5.60;;;4.72;;
8183;SDS011;4133;48.752;9.088;2022-07-23T07:28:31;11.50;;;7.15;;
8183;SDS011;4133;48.752;9.088;2022-07-23T07:30:57;4.95;;;4.15;;
8183;SDS011;4133;48.752;9.088;2022-07-23T07:33:23;4.97;;;4.47;;
8183;SDS011;4133;48.752;9.088;2022-07-23T07:35:49;6.38;;;4.60;;
8183;SDS011;4133;48.752;9.088;2022-07-23T07:38:15;6.07;;;4.25;;
8183;SDS011;4133;48.752;9.088;2022-07-23T07:40:41;7.68;;;4.90;;
8183;SDS011;4133;48.752;9.088;2022-07-23T07:43:07;6.78;;;4.55;;
8183;SDS011;4133;48.752;9.088;2022-07-23T07:45:33;8.10;;;4.57;;
8183;SDS011;4133;48.752;9.088;2022-07-23T07:47:59;5.20;;;4.30;;
8183;SDS011;4133;48.752;9.088;2022-07-23T07:50:25;6.03;;;3.78;;
8183;SDS011;4133;48.752;9.088;2022-07-23T07:52:51;5.15;;;4.18;;
8183;SDS011;4133;48.752;9.088;2022-07-23T07:55:17;4.72;;;4.00;;
8183;SDS011;4133;48.752;9.088;2022-07-23T07:57:43;4.25;;;3.85;;
8183;SDS011;4133;48.752;9.088;2022-07-23T08:00:09;4.70;;;3.80;;
8183;SDS011;4133;48.752;9.088;2022-07-23T08:02:40;4.32;;;3.90;;
8183;SDS011;4133;48.752;9.088;2022-07-23T08:05:06;4.88;;;3.88;;
8183;SDS011;4133;48.752;9.088;2022-07-23T08:07:32;4.30;;;3.90;;
8183;SDS011;4133;48.752;9.088;2022-07-23T08:09:58;4.18;;;3.67;;
8183;SDS011;4133;48.752;9.088;2022-07-23T08:12:24;4.45;;;4.05;;
8183;SDS011;4133;48.752;9.088;2022-07-23T08:14:50;4.90;;;3.90;;
8183;SDS011;4133;48.752;9.088;2022-07-23T08:17:16;4.28;;;3.97;;
8183;SDS011;4133;48.752;9.088;2022-07-23T08:19:42;4.55;;;4.15;;
8183;SDS011;4133;48.752;9.088;2022-07-23T08:22:08;7.53;;;5.68;;
8183;SDS011;4133;48.752;9.088;2022-07-23T08:24:34;13.77;;;8.20;;
8183;SDS011;4133;48.752;9.088;2022-07-23T08:27:00;8.25;;;6.47;;
8183;SDS011;4133;48.752;9.088;2022-07-23T08:29:26;7.45;;;4.93;;
8183;SDS011;4133;48.752;9.088;2022-07-23T08:31:52;4.53;;;4.13;;
8183;SDS011;4133;48.752;9.088;2022-07-23T08:34:18;4.30;;;4.00;;
8183;SDS011;4133;48.752;9.088;2022-07-23T08:36:44;4.82;;;4.40;;
8183;SDS011;4133;48.752;9.088;2022-07-23T08:39:10;5.88;;;4.18;;
8183;SDS011;4133;48.752;9.088;2022-07-23T08:41:36;4.55;;;4.15;;
8183;SDS011;4133;48.752;9.088;2022-07-23T08:44:07;4.28;;;3.88;;
8183;SDS011;4133;48.752;9.088;2022-07-23T08:46:33;4.72;;;3.90;;
8183;SDS011;4133;48.752;9.088;2022-07-23T08:49:00;4.30;;;3.80;;
8183;SDS011;4133;48.752;9.088;2022-07-23T08:51:26;4.82;;;3.65;;
8183;SDS011;4133;48.752;9.088;2022-07-23T08:53:52;4.32;;;3.88;;
8183;SDS011;4133;48.752;9.088;2022-07-23T08:56:19;4.30;;;3.78;;
8183;SDS011;4133;48.752;9.088;2022-07-23T08:58:45;4.75;;;4.13;;
8183;SDS011;4133;48.752;9.088;2022-07-23T09:01:11;3.90;;;3.60;;
8183;SDS011;4133;48.752;9.088;2022-07-23T09:03:37;4.50;;;3.97;;
8183;SDS011;4133;48.752;9.088;2022-07-23T09:08:36;4.05;;;3.50;;
8183;SDS011;4133;48.752;9.088;2022-07-23T09:11:03;3.70;;;3.40;;
8183;SDS011;4133;48.752;9.088;2022-07-23T09:16:12;3.88;;;3.50;;
8183;SDS011;4133;48.752;9.088;2022-07-23T09:18:43;5.38;;;3.22;;
8183;SDS011;4133;48.752;9.088;2022-07-23T09:21:31;3.92;;;3.53;;
8183;SDS011;4133;48.752;9.088;2022-07-23T09:23:57;3.83;;;3.38;;
8183;SDS011;4133;48.752;9.088;2022-07-23T09:26:24;4.05;;;3.38;;
8183;SDS011;4133;48.752;9.088;2022-07-23T09:28:55;3.55;;;3.25;;
8183;SDS011;4133;48.752;9.088;2022-07-23T09:31:22;3.40;;;3.10;;
8183;SDS011;4133;48.752;9.088;2022-07-23T09:33:48;3.97;;;3.67;;
8183;SDS011;4133;48.752;9.088;2022-07-23T09:36:14;4.40;;;3.47;;
8183;SDS011;4133;48.752;9.088;2022-07-23T09:38:50;3.55;;;3.25;;
8183;SDS011;4133;48.752;9.088;2022-07-23T09:41:16;3.70;;;3.30;;
8183;SDS011;4133;48.752;9.088;2022-07-23T09:43:42;3.80;;;3.40;;
8183;SDS011;4133;48.752;9.088;2022-07-23T09:46:18;3.50;;;3.20;;
8183;SDS011;4133;48.752;9.088;2022-07-23T09:48:46;3.85;;;3.55;;
8183;SDS011;4133;48.752;9.088;2022-07-23T09:51:12;4.45;;;3.30;;
8183;SDS011;4133;48.752;9.088;2022-07-23T09:53:53;4.13;;;3.70;;
8183;SDS011;4133;48.752;9.088;2022-07-23T09:56:20;4.00;;;3.40;;
8183;SDS011;4133;48.752;9.088;2022-07-23T09:58:48;3.88;;;3.58;;
8183;SDS011;4133;48.752;9.088;2022-07-23T10:01:16;5.45;;;3.65;;
8183;SDS011;4133;48.752;9.088;2022-07-23T10:03:43;4.10;;;3.70;;
8183;SDS011;4133;48.752;9.088;2022-07-23T10:06:09;4.18;;;3.78;;
8183;SDS011;4133;48.752;9.088;2022-07-23T10:08:35;3.92;;;3.58;;
8183;SDS011;4133;48.752;9.088;2022-07-23T10:11:04;4.00;;;3.70;;
8183;SDS011;4133;48.752;9.088;2022-07-23T10:13:33;4.00;;;3.60;;
8183;SDS011;4133;48.752;9.088;2022-07-23T10:16:12;4.05;;;3.75;;
8183;SDS011;4133;48.752;9.088;2022-07-23T10:18:38;4.00;;;3.60;;
8183;SDS011;4133;48.752;9.088;2022-07-23T10:21:07;6.25;;;3.42;;
8183;SDS011;4133;48.752;9.088;2022-07-23T10:23:35;3.75;;;3.22;;
8183;SDS011;4133;48.752;9.088;2022-07-23T10:26:08;3.53;;;3.22;;
8183;SDS011;4133;48.752;9.088;2022-07-23T10:34:15;3.97;;;3.50;;
8183;SDS011;4133;48.752;9.088;2022-07-23T10:36:49;4.18;;;3.35;;
8183;SDS011;4133;48.752;9.088;2022-07-23T10:39:22;3.97;;;3.58;;
8183;SDS011;4133;48.752;9.088;2022-07-23T10:41:49;3.63;;;3.10;;
8183;SDS011;4133;48.752;9.088;2022-07-23T10:47:04;4.80;;;3.47;;
8183;SDS011;4133;48.752;9.088;2022-07-23T10:49:34;3.88;;;3.58;;
8183;SDS011;4133;48.752;9.088;2022-07-23T10:57:28;3.97;;;3.67;;
8183;SDS011;4133;48.752;9.088;2022-07-23T11:02:42;4.65;;;3.90;;
8183;SDS011;4133;48.752;9.088;2022-07-23T11:05:11;4.40;;;4.00;;
8183;SDS011;4133;48.752;9.088;2022-07-23T11:19:15;6.97;;;3.85;;
8183;SDS011;4133;48.752;9.088;2022-07-23T11:34:41;4.18;;;3.65;;
8183;SDS011;4133;48.752;9.088;2022-07-23T11:37:10;4.32;;;3.80;;
8183;SDS011;4133;48.752;9.088;2022-07-23T11:39:37;3.63;;;3.33;;
8183;SDS011;4133;48.752;9.088;2022-07-23T11:42:04;3.80;;;3.47;;
8183;SDS011;4133;48.752;9.088;2022-07-23T11:46:56;3.88;;;3.53;;
8183;SDS011;4133;48.752;9.088;2022-07-23T11:49:23;5.13;;;3.80;;
8183;SDS011;4133;48.752;9.088;2022-07-23T11:52:02;4.22;;;3.70;;
8183;SDS011;4133;48.752;9.088;2022-07-23T11:54:29;5.15;;;3.83;;
8183;SDS011;4133;48.752;9.088;2022-07-23T11:56:56;4.70;;;3.65;;
8183;SDS011;4133;48.752;9.088;2022-07-23T11:59:23;4.07;;;3.72;;
8183;SDS011;4133;48.752;9.088;2022-07-23T12:01:57;4.55;;;4.07;;
8183;SDS011;4133;48.752;9.088;2022-07-23T12:04:24;4.20;;;3.78;;
8183;SDS011;4133;48.752;9.088;2022-07-23T12:06:50;3.70;;;3.40;;
8183;SDS011;4133;48.752;9.088;2022-07-23T12:09:16;4.10;;;3.70;;
8183;SDS011;4133;48.752;9.088;2022-07-23T12:11:59;5.28;;;4.30;;
8183;SDS011;4133;48.752;9.088;2022-07-23T12:14:28;4.47;;;3.95;;
8183;SDS011;4133;48.752;9.088;2022-07-23T12:17:10;5.70;;;5.10;;
8183;SDS011;4133;48.752;9.088;2022-07-23T12:19:36;4.68;;;4.07;;
8183;SDS011;4133;48.752;9.088;2022-07-23T12:22:02;4.55;;;4.00;;
8183;SDS011;4133;48.752;9.088;2022-07-23T12:24:28;6.10;;;5.50;;
8183;SDS011;4133;48.752;9.088;2022-07-23T12:27:12;7.40;;;5.57;;
8183;SDS011;4133;48.752;9.088;2022-07-23T12:29:39;4.82;;;3.95;;
8183;SDS011;4133;48.752;9.088;2022-07-23T12:35:08;4.45;;;4.05;;
8183;SDS011;4133;48.752;9.088;2022-07-23T12:37:38;4.15;;;3.50;;
8183;SDS011;4133;48.752;9.088;2022-07-23T12:42:50;4.93;;;3.95;;
8183;SDS011;4133;48.752;9.088;2022-07-23T12:45:16;4.47;;;4.13;;
8183;SDS011;4133;48.752;9.088;2022-07-23T12:47:52;4.60;;;4.20;;
8183;SDS011;4133;48.752;9.088;2022-07-23T12:53:18;4.18;;;3.78;;
8183;SDS011;4133;48.752;9.088;2022-07-23T12:55:45;6.45;;;4.90;;
8183;SDS011;4133;48.752;9.088;2022-07-23T12:58:15;4.90;;;3.72;;
8183;SDS011;4133;48.752;9.088;2022-07-23T13:00:48;4.32;;;3.92;;
8183;SDS011;4133;48.752;9.088;2022-07-23T13:03:25;4.53;;;4.13;;
8183;SDS011;4133;48.752;9.088;2022-07-23T13:05:52;4.30;;;3.80;;
8183;SDS011;4133;48.752;9.088;2022-07-23T13:08:18;4.47;;;3.90;;
8183;SDS011;4133;48.752;9.088;2022-07-23T13:10:44;4.22;;;3.88;;
8183;SDS011;4133;48.752;9.088;2022-07-23T13:13:21;5.57;;;3.90;;
8183;SDS011;4133;48.752;9.088;2022-07-23T13:15:48;4.07;;;3.67;;
8183;SDS011;4133;48.752;9.088;2022-07-23T13:18:14;4.57;;;3.70;;
8183;SDS011;4133;48.752;9.088;2022-07-23T13:20:41;4.22;;;3.90;;
8183;SDS011;4133;48.752;9.088;2022-07-23T13:23:07;5.03;;;3.90;;
8183;SDS011;4133;48.752;9.088;2022-07-23T13:25:33;4.03;;;3.60;;
8183;SDS011;4133;48.752;9.088;2022-07-23T13:28:00;4.20;;;3.72;;
8183;SDS011;4133;48.752;9.088;2022-07-23T13:30:26;4.47;;;3.63;;
8183;SDS011;4133;48.752;9.088;2022-07-23T13:32:52;4.75;;;4.00;;
8183;SDS011;4133;48.752;9.088;2022-07-23T13:35:18;4.00;;;3.70;;
8183;SDS011;4133;48.752;9.088;2022-07-23T13:37:44;3.85;;;3.50;;
8183;SDS011;4133;48.752;9.088;2022-07-23T13:40:10;4.18;;;3.78;;
8183;SDS011;4133;48.752;9.088;2022-07-23T13:42:36;5.03;;;4.18;;
8183;SDS011;4133;48.752;9.088;2022-07-23T13:45:03;4.28;;;3.85;;
8183;SDS011;4133;48.752;9.088;2022-07-23T13:47:30;5.40;;;4.00;;
8183;SDS011;4133;48.752;9.088;2022-07-23T13:49:56;4.20;;;3.67;;
8183;SDS011;4133;48.752;9.088;2022-07-23T13:52:22;5.80;;;3.92;;
8183;SDS011;4133;48.752;9.088;2022-07-23T13:54:49;5.15;;;3.85;;
8183;SDS011;4133;48.752;9.088;2022-07-23T13:57:15;4.72;;;4.07;;
8183;SDS011;4133;48.752;9.088;2022-07-23T13:59:41;6.32;;;3.83;;
8183;SDS011;4133;48.752;9.088;2022-07-23T14:02:07;5.53;;;4.25;;
8183;SDS011;4133;48.752;9.088;2022-07-23T14:04:33;4.10;;;3.70;;
8183;SDS011;4133;48.752;9.088;2022-07-23T14:06:59;4.38;;;3.97;;
8183;SDS011;4133;48.752;9.088;2022-07-23T14:09:26;4.50;;;4.10;;
8183;SDS011;4133;48.752;9.088;2022-07-23T14:11:52;4.38;;;3.70;;
8183;SDS011;4133;48.752;9.088;2022-07-23T14:14:24;4.07;;;3.63;;
8183;SDS011;4133;48.752;9.088;2022-07-23T14:16:50;7.65;;;4.32;;
8183;SDS011;4133;48.752;9.088;2022-07-23T14:19:16;4.35;;;3.95;;
8183;SDS011;4133;48.752;9.088;2022-07-23T14:21:42;3.92;;;3.63;;
8183;SDS011;4133;48.752;9.088;2022-07-23T14:24:08;5.40;;;3.95;;
8183;SDS011;4133;48.752;9.088;2022-07-23T14:26:34;4.47;;;3.75;;
8183;SDS011;4133;48.752;9.088;2022-07-23T14:29:00;4.32;;;3.90;;
8183;SDS011;4133;48.752;9.088;2022-07-23T14:31:26;5.15;;;4.00;;
8183;SDS011;4133;48.752;9.088;2022-07-23T14:33:52;4.05;;;3.65;;
8183;SDS011;4133;48.752;9.088;2022-07-23T14:36:18;7.47;;;3.92;;
8183;SDS011;4133;48.752;9.088;2022-07-23T14:38:45;4.30;;;3.90;;
8183;SDS011;4133;48.752;9.088;2022-07-23T14:41:11;4.38;;;3.85;;
8183;SDS011;4133;48.752;9.088;2022-07-23T14:43:37;4.28;;;3.88;;
8183;SDS011;4133;48.752;9.088;2022-07-23T14:46:03;5.05;;;4.00;;
8183;SDS011;4133;48.752;9.088;2022-07-23T14:48:29;4.10;;;3.70;;
8183;SDS011;4133;48.752;9.088;2022-07-23T14:50:55;4.20;;;3.80;;
8183;SDS011;4133;48.752;9.088;2022-07-23T14:53:21;4.28;;;3.78;;
8183;SDS011;4133;48.752;9.088;2022-07-23T14:55:47;4.63;;;4.03;;
8183;SDS011;4133;48.752;9.088;2022-07-23T14:58:13;6.22;;;4.00;;
8183;SDS011;4133;48.752;9.088;2022-07-23T15:00:39;5.78;;;3.97;;
8183;SDS011;4133;48.752;9.088;2022-07-23T15:03:05;4.30;;;3.90;;
8183;SDS011;4133;48.752;9.088;2022-07-23T15:05:32;4.95;;;4.00;;
8183;SDS011;4133;48.752;9.088;2022-07-23T15:07:57;4.80;;;3.75;;
8183;SDS011;4133;48.752;9.088;2022-07-23T15:10:24;4.25;;;3.70;;
8183;SDS011;4133;48.752;9.088;2022-07-23T15:12:50;4.22;;;3.83;;
8183;SDS011;4133;48.752;9.088;2022-07-23T15:15:17;4.47;;;3.70;;
8183;SDS011;4133;48.752;9.088;2022-07-23T15:17:43;4.13;;;3.78;;
8183;SDS011;4133;48.752;9.088;2022-07-23T15:20:09;4.20;;;3.80;;
8183;SDS011;4133;48.752;9.088;2022-07-23T15:22:35;4.05;;;3.65;;
8183;SDS011;4133;48.752;9.088;2022-07-23T15:25:02;4.50;;;4.10;;
8183;SDS011;4133;48.752;9.088;2022-07-23T15:27:28;5.93;;;4.00;;
8183;SDS011;4133;48.752;9.088;2022-07-23T15:29:54;4.88;;;4.35;;
8183;SDS011;4133;48.752;9.088;2022-07-23T15:32:20;4.80;;;3.95;;
8183;SDS011;4133;48.752;9.088;2022-07-23T15:34:46;4.68;;;4.15;;
8183;SDS011;4133;48.752;9.088;2022-07-23T15:37:11;4.40;;;4.00;;
8183;SDS011;4133;48.752;9.088;2022-07-23T15:39:37;4.70;;;4.13;;
8183;SDS011;4133;48.752;9.088;2022-07-23T15:42:03;4.30;;;3.90;;
8183;SDS011;4133;48.752;9.088;2022-07-23T15:44:29;4.43;;;4.03;;
8183;SDS011;4133;48.752;9.088;2022-07-23T15:46:56;6.03;;;4.15;;
8183;SDS011;4133;48.752;9.088;2022-07-23T15:49:23;5.35;;;3.85;;
8183;SDS011;4133;48.752;9.088;2022-07-23T15:51:49;4.95;;;3.58;;
8183;SDS011;4133;48.752;9.088;2022-07-23T15:54:15;5.60;;;4.20;;
8183;SDS011;4133;48.752;9.088;2022-07-23T15:56:41;5.53;;;4.25;;
8183;SDS011;4133;48.752;9.088;2022-07-23T15:59:07;4.85;;;3.90;;
8183;SDS011;4133;48.752;9.088;2022-07-23T16:01:33;5.18;;;4.25;;
8183;SDS011;4133;48.752;9.088;2022-07-23T16:03:59;6.45;;;4.22;;
8183;SDS011;4133;48.752;9.088;2022-07-23T16:06:26;5.43;;;4.20;;
8183;SDS011;4133;48.752;9.088;2022-07-23T16:08:52;4.40;;;4.00;;
8183;SDS011;4133;48.752;9.088;2022-07-23T16:11:18;5.60;;;4.30;;
8183;SDS011;4133;48.752;9.088;2022-07-23T16:13:45;5.63;;;4.15;;